Time;durP1;ratioP1;P1;durP2;ratioP2;P2;SDS_P1;SDS_P2;PMS_P1;PMS_P2;Temp;Humidity;BMP_temperature;BMP_pressure;BME280_temperature;BME280_humidity;BME280_pressure;Samples;Min_cycle;Max_cycle;Signal;HPM_P1;HPM_P2
2021/01/23 00:02:19;;;;;;;421.83;138.63;;;12.30;99.90;;;;;;5008875;28;20820;-78
2021/01/23 00:04:46;;;;;;;424.30;142.60;;;12.30;99.90;;;;;;5024545;28;20433;-79
2021/01/23 00:07:18;;;;;;;424.48;138.43;;;12.30;99.90;;;;;;5023626;28;20433;-78
2021/01/23 00:09:45;;;;;;;423.08;139.75;;;12.40;99.90;;;;;;5024410;28;20430;-78
2021/01/23 00:12:12;;;;;;;422.52;138.13;;;12.30;99.90;;;;;;5007844;28;20428;-78
2021/01/23 00:14:52;;;;;;;424.70;137.80;;;12.30;99.90;;;;;;5022465;28;20425;-79
2021/01/23 00:17:19;;;;;;;421.95;135.82;;;12.40;99.90;;;;;;5017729;28;20442;-78
2021/01/23 00:19:46;;;;;;;416.90;135.17;;;12.30;99.90;;;;;;5009737;28;20431;-78
2021/01/23 00:22:13;;;;;;;417.92;138.18;;;12.30;99.90;;;;;;5002910;28;20957;-78
2021/01/23 00:24:41;;;;;;;422.92;138.85;;;12.30;99.90;;;;;;5034475;28;20433;-78
2021/01/23 00:27:09;;;;;;;422.73;143.77;;;12.40;99.90;;;;;;5014432;28;20439;-78
2021/01/23 00:29:36;;;;;;;421.13;136.40;;;12.30;99.90;;;;;;5005768;28;20449;-79
2021/01/23 00:32:03;;;;;;;416.10;130.85;;;12.30;99.90;;;;;;5003441;28;20425;-80
2021/01/23 00:34:30;;;;;;;413.38;131.27;;;12.30;99.90;;;;;;5008075;28;20427;-80
2021/01/23 00:36:57;;;;;;;415.08;133.63;;;12.30;99.90;;;;;;5023831;28;20410;-80
2021/01/23 00:39:24;;;;;;;415.30;131.77;;;12.30;99.90;;;;;;5005546;28;20986;-80
2021/01/23 00:41:52;;;;;;;414.63;133.60;;;12.30;99.90;;;;;;5005825;28;20425;-79
2021/01/23 00:44:20;;;;;;;412.20;131.85;;;12.30;99.90;;;;;;5007563;28;20435;-79
2021/01/23 00:46:46;;;;;;;413.42;133.73;;;12.30;99.90;;;;;;5005289;28;20426;-80
2021/01/23 00:49:14;;;;;;;407.85;125.47;;;12.30;99.90;;;;;;5038268;28;20424;-79
2021/01/23 00:51:45;;;;;;;410.27;129.27;;;12.30;99.90;;;;;;5004997;28;20429;-80
2021/01/23 00:54:12;;;;;;;406.98;125.90;;;12.30;99.90;;;;;;5037730;28;20426;-79
2021/01/23 00:56:39;;;;;;;408.83;127.25;;;12.30;99.90;;;;;;5022560;28;20433;-77
2021/01/23 00:59:07;;;;;;;404.85;126.28;;;12.30;99.90;;;;;;5020998;28;20417;-78
2021/01/23 01:01:37;;;;;;;406.88;126.45;;;12.30;99.90;;;;;;5005792;28;20421;-78
2021/01/23 01:04:04;;;;;;;406.80;127.30;;;12.30;99.90;;;;;;5017711;28;20427;-78
2021/01/23 01:06:31;;;;;;;411.60;130.03;;;12.30;99.90;;;;;;5004827;28;20498;-78
2021/01/23 01:08:59;;;;;;;409.05;130.63;;;12.30;99.90;;;;;;5020141;28;20949;-78
2021/01/23 01:11:25;;;;;;;410.30;130.02;;;12.30;99.90;;;;;;5017374;28;20496;-78
2021/01/23 01:13:52;;;;;;;411.23;130.67;;;12.30;99.90;;;;;;5035520;28;20458;-78
2021/01/23 01:16:20;;;;;;;411.00;129.10;;;12.30;99.90;;;;;;5035421;28;20421;-78
2021/01/23 01:18:47;;;;;;;405.52;126.22;;;12.30;99.90;;;;;;5022370;28;20489;-78
2021/01/23 01:21:14;;;;;;;408.40;125.10;;;12.30;99.90;;;;;;5021337;28;20429;-78
2021/01/23 01:23:42;;;;;;;411.23;126.15;;;12.30;99.90;;;;;;5051444;28;20424;-78
2021/01/23 01:26:09;;;;;;;412.27;128.85;;;12.30;99.90;;;;;;5057439;28;20425;-78
2021/01/23 01:28:36;;;;;;;410.08;129.05;;;12.30;99.90;;;;;;5021680;28;20433;-79
2021/01/23 01:31:03;;;;;;;417.52;134.10;;;12.30;99.90;;;;;;5000561;28;20485;-78
2021/01/23 01:33:31;;;;;;;418.38;136.25;;;12.20;99.90;;;;;;5022167;28;20447;-78
2021/01/23 01:35:59;;;;;;;418.00;134.68;;;12.30;99.90;;;;;;5022609;28;20435;-78
2021/01/23 01:38:26;;;;;;;418.70;137.18;;;12.20;99.90;;;;;;5005773;28;20437;-78
2021/01/23 01:40:53;;;;;;;420.98;139.68;;;12.30;99.90;;;;;;5004669;28;20421;-78
2021/01/23 01:43:20;;;;;;;418.67;135.33;;;12.30;99.90;;;;;;5014491;28;20423;-78
2021/01/23 01:45:49;;;;;;;419.30;138.00;;;12.30;99.90;;;;;;5032085;28;20431;-76
2021/01/23 01:48:16;;;;;;;417.70;133.68;;;12.30;99.90;;;;;;5018763;28;20425;-78
2021/01/23 01:50:44;;;;;;;420.73;140.27;;;12.20;99.90;;;;;;5019313;28;20421;-78
2021/01/23 01:53:11;;;;;;;425.08;143.77;;;12.30;99.90;;;;;;5014307;28;20429;-78
2021/01/23 01:55:38;;;;;;;421.65;141.82;;;12.30;99.90;;;;;;5036211;28;20494;-78
2021/01/23 01:58:05;;;;;;;425.38;146.40;;;12.20;99.90;;;;;;5019610;28;20477;-78
2021/01/23 02:00:32;;;;;;;422.67;141.43;;;12.30;99.90;;;;;;5017042;28;20506;-78
2021/01/23 02:03:26;;;;;;;422.55;145.30;;;12.30;99.90;;;;;;5003749;28;20421;-79
2021/01/23 02:06:08;;;;;;;420.35;143.55;;;12.30;99.90;;;;;;5037303;28;20431;-78
2021/01/23 02:08:47;;;;;;;422.67;145.10;;;12.30;99.90;;;;;;5060624;28;20425;-78
2021/01/23 02:11:23;;;;;;;420.50;136.77;;;12.30;99.90;;;;;;5038176;28;20425;-79
2021/01/23 02:13:55;;;;;;;422.13;141.23;;;12.20;99.90;;;;;;5037670;28;20564;-78
2021/01/23 02:16:26;;;;;;;422.10;141.93;;;12.30;99.90;;;;;;5019689;28;20458;-78
2021/01/23 02:19:00;;;;;;;427.73;143.90;;;12.20;99.90;;;;;;5044261;28;20425;-78
2021/01/23 02:22:00;;;;;;;425.08;142.80;;;12.30;99.90;;;;;;5044858;28;20424;-78
2021/01/23 02:24:29;;;;;;;422.70;145.90;;;12.20;99.90;;;;;;5044648;28;20433;-78
2021/01/23 02:27:18;;;;;;;426.45;146.20;;;12.20;99.90;;;;;;5030584;28;20409;-78
2021/01/23 02:30:03;;;;;;;422.52;142.23;;;12.30;99.90;;;;;;5044385;28;20429;-78
2021/01/23 02:32:33;;;;;;;425.20;148.02;;;12.20;99.90;;;;;;5059360;28;20425;-78
2021/01/23 02:35:01;;;;;;;423.95;147.57;;;12.20;99.90;;;;;;5030528;28;20427;-78
2021/01/23 02:37:30;;;;;;;421.67;143.80;;;12.20;99.90;;;;;;5028787;28;21032;-78
2021/01/23 02:39:58;;;;;;;419.05;141.00;;;12.20;99.90;;;;;;5045885;28;20433;-78
2021/01/23 02:42:25;;;;;;;420.63;141.40;;;12.20;99.90;;;;;;5040832;28;20517;-78
2021/01/23 02:44:51;;;;;;;419.65;136.07;;;12.20;99.90;;;;;;5046348;28;20429;-77
2021/01/23 02:47:19;;;;;;;421.42;138.77;;;12.20;99.90;;;;;;5045812;28;20459;-78
2021/01/23 02:49:47;;;;;;;421.38;140.25;;;12.30;99.90;;;;;;5026903;28;21437;-78
2021/01/23 02:52:20;;;;;;;422.07;141.40;;;12.30;99.90;;;;;;5026940;28;20428;-78
2021/01/23 02:54:51;;;;;;;421.10;142.30;;;12.30;99.90;;;;;;5046108;28;20502;-78
2021/01/23 02:57:21;;;;;;;424.48;148.48;;;12.40;99.90;;;;;;5009735;28;20439;-78
2021/01/23 02:59:53;;;;;;;422.10;141.52;;;12.40;99.90;;;;;;5045867;28;20434;-78
2021/01/23 03:02:21;;;;;;;422.40;143.82;;;12.40;99.90;;;;;;5046483;28;20474;-77
2021/01/23 03:04:51;;;;;;;423.80;146.10;;;12.40;99.90;;;;;;5040766;28;20457;-78
2021/01/23 03:07:19;;;;;;;424.52;143.75;;;12.40;99.90;;;;;;5021542;28;20999;-78
2021/01/23 03:09:47;;;;;;;428.47;151.03;;;12.40;99.90;;;;;;5027000;28;20477;-77
2021/01/23 03:12:14;;;;;;;418.27;139.20;;;12.40;99.90;;;;;;5060482;28;20482;-78
2021/01/23 03:14:41;;;;;;;416.00;135.13;;;12.40;99.90;;;;;;5007889;28;20936;-78
2021/01/23 03:17:08;;;;;;;418.20;138.23;;;12.40;99.90;;;;;;5025939;28;20433;-77
2021/01/23 03:19:36;;;;;;;417.97;137.07;;;12.40;99.90;;;;;;5026357;28;20595;-78
2021/01/23 03:22:04;;;;;;;417.33;137.20;;;12.40;99.90;;;;;;5019575;28;20914;-78
2021/01/23 03:24:30;;;;;;;414.38;133.00;;;12.40;99.90;;;;;;5046105;28;20459;-78
2021/01/23 03:26:57;;;;;;;417.80;137.27;;;12.40;99.90;;;;;;5040141;28;21118;-78
2021/01/23 03:29:24;;;;;;;416.95;137.00;;;12.40;99.90;;;;;;5055339;28;20414;-78
2021/01/23 03:31:51;;;;;;;421.85;146.95;;;12.30;99.90;;;;;;5020986;28;20426;-78
2021/01/23 03:34:18;;;;;;;420.08;138.18;;;12.40;99.90;;;;;;5024001;28;20426;-78
2021/01/23 03:36:45;;;;;;;416.85;136.63;;;12.30;99.90;;;;;;5019758;28;20429;-78
2021/01/23 03:39:13;;;;;;;416.92;135.50;;;12.30;99.90;;;;;;5008868;28;21105;-78
2021/01/23 03:41:40;;;;;;;417.15;132.20;;;12.30;99.90;;;;;;5053797;28;20407;-78
2021/01/23 03:44:07;;;;;;;412.30;129.50;;;12.30;99.90;;;;;;5007917;28;20436;-78
2021/01/23 03:46:34;;;;;;;411.48;128.80;;;12.30;99.90;;;;;;5041820;28;20425;-78
2021/01/23 03:49:01;;;;;;;415.35;132.98;;;12.30;99.90;;;;;;5040505;28;20435;-78
2021/01/23 03:51:28;;;;;;;421.10;142.77;;;12.30;99.90;;;;;;5015967;28;20432;-78
2021/01/23 03:53:55;;;;;;;424.55;146.07;;;12.30;99.90;;;;;;5019221;28;20427;-78
2021/01/23 03:56:23;;;;;;;420.63;136.73;;;12.30;99.90;;;;;;5035489;28;20474;-78
2021/01/23 03:58:50;;;;;;;419.38;144.57;;;12.30;99.90;;;;;;5024327;28;20433;-78
2021/01/23 04:01:17;;;;;;;424.75;144.07;;;12.30;99.90;;;;;;5040881;28;20417;-78
2021/01/23 04:03:44;;;;;;;422.92;143.00;;;12.30;99.90;;;;;;5006055;28;20434;-78
2021/01/23 04:06:11;;;;;;;422.73;141.73;;;12.20;99.90;;;;;;5008534;28;20481;-78
2021/01/23 04:08:39;;;;;;;424.60;143.60;;;12.20;99.90;;;;;;5040947;28;20417;-78
2021/01/23 04:11:05;;;;;;;424.42;141.55;;;12.20;99.90;;;;;;5004345;28;20426;-78
2021/01/23 04:13:34;;;;;;;424.75;140.48;;;12.20;99.90;;;;;;5025637;28;20427;-78
2021/01/23 04:16:05;;;;;;;425.35;139.38;;;12.20;99.90;;;;;;5007929;28;20452;-78
2021/01/23 04:18:32;;;;;;;424.88;144.60;;;12.20;99.90;;;;;;5055761;28;20432;-78
2021/01/23 04:20:59;;;;;;;423.13;137.15;;;12.20;99.90;;;;;;5022008;28;20431;-78
2021/01/23 04:23:26;;;;;;;421.67;141.70;;;12.20;99.90;;;;;;5008380;28;20413;-79
2021/01/23 04:25:53;;;;;;;421.77;140.95;;;12.20;99.90;;;;;;5034444;28;20425;-79
2021/01/23 04:28:20;;;;;;;420.02;138.35;;;12.20;99.90;;;;;;5020259;28;20430;-79
2021/01/23 04:30:48;;;;;;;423.85;151.38;;;12.20;99.90;;;;;;5005942;28;20795;-78
2021/01/23 04:33:15;;;;;;;401.80;132.20;;;12.20;99.90;;;;;;5042930;28;20484;-78
2021/01/23 04:35:42;;;;;;;404.23;130.63;;;12.20;99.90;;;;;;5033801;28;21148;-78
2021/01/23 04:38:09;;;;;;;414.47;133.03;;;12.20;99.90;;;;;;5023412;28;20448;-78
2021/01/23 04:40:37;;;;;;;416.98;136.27;;;12.20;99.90;;;;;;5022757;28;20448;-78
2021/01/23 04:43:04;;;;;;;415.85;134.82;;;12.20;99.90;;;;;;5003275;28;20421;-78
2021/01/23 04:45:40;;;;;;;410.20;125.47;;;12.20;99.90;;;;;;5023597;28;20822;-78
2021/01/23 04:48:09;;;;;;;407.48;121.68;;;12.20;99.90;;;;;;5038828;28;20486;-78
2021/01/23 04:50:36;;;;;;;406.60;130.75;;;12.20;99.90;;;;;;5005410;28;20435;-78
2021/01/23 04:53:03;;;;;;;404.43;124.17;;;12.20;99.90;;;;;;5020942;28;20429;-78
2021/01/23 04:55:30;;;;;;;400.55;122.40;;;12.20;99.90;;;;;;5006472;28;20413;-78
2021/01/23 04:58:04;;;;;;;390.67;123.65;;;12.20;99.90;;;;;;5019583;28;20463;-78
2021/01/23 05:00:31;;;;;;;377.80;120.27;;;12.20;99.90;;;;;;5019966;28;20432;-78
2021/01/23 05:02:59;;;;;;;383.77;120.32;;;12.20;99.90;;;;;;5023239;28;20425;-79
2021/01/23 05:05:27;;;;;;;420.40;138.40;;;12.20;99.90;;;;;;5041481;28;20502;-78
2021/01/23 05:08:04;;;;;;;412.58;130.05;;;12.20;99.90;;;;;;5004732;28;20429;-78
2021/01/23 05:10:32;;;;;;;409.93;126.77;;;12.20;99.90;;;;;;5039050;28;20482;-78
2021/01/23 05:12:59;;;;;;;408.27;124.15;;;12.20;99.90;;;;;;5003792;28;20417;-78
2021/01/23 05:15:27;;;;;;;413.15;126.93;;;12.20;99.90;;;;;;5024760;28;20421;-78
2021/01/23 05:17:56;;;;;;;412.65;131.77;;;12.20;99.90;;;;;;5040440;28;20436;-78
2021/01/23 05:20:35;;;;;;;416.23;131.82;;;12.20;99.90;;;;;;5004391;28;20429;-78
2021/01/23 05:23:02;;;;;;;408.65;124.55;;;12.20;99.90;;;;;;5042854;28;20431;-78
2021/01/23 05:25:32;;;;;;;412.77;126.47;;;12.20;99.90;;;;;;5039729;28;22754;-78
2021/01/23 05:28:06;;;;;;;410.85;126.18;;;12.20;99.90;;;;;;5038653;28;20439;-78
2021/01/23 05:30:44;;;;;;;411.95;124.13;;;12.10;99.90;;;;;;5035815;28;20458;-78
2021/01/23 05:33:13;;;;;;;418.95;133.13;;;12.10;99.90;;;;;;5037284;28;20430;-78
2021/01/23 05:35:41;;;;;;;415.38;136.77;;;12.20;99.90;;;;;;5027118;28;20423;-78
2021/01/23 05:38:23;;;;;;;410.93;133.20;;;12.20;99.90;;;;;;5034310;28;21013;-78
2021/01/23 05:40:52;;;;;;;412.85;135.80;;;12.20;99.90;;;;;;5038351;28;20437;-79
2021/01/23 05:43:30;;;;;;;410.77;131.23;;;12.10;99.90;;;;;;5034872;28;20429;-78
2021/01/23 05:45:58;;;;;;;412.90;134.47;;;12.10;99.90;;;;;;5021047;28;20903;-78
2021/01/23 05:48:25;;;;;;;411.27;126.10;;;12.10;99.90;;;;;;5022540;28;20431;-78
2021/01/23 05:50:53;;;;;;;407.33;125.90;;;12.10;99.90;;;;;;5023017;28;20425;-78
2021/01/23 05:53:20;;;;;;;412.52;126.63;;;12.10;99.90;;;;;;5040488;28;20412;-78
2021/01/23 05:55:47;;;;;;;415.65;135.00;;;12.10;99.90;;;;;;5015410;28;20717;-78
2021/01/23 05:58:14;;;;;;;415.30;135.80;;;12.10;99.90;;;;;;5017906;28;20433;-78
2021/01/23 06:00:42;;;;;;;413.30;134.27;;;12.10;99.90;;;;;;5017151;28;20432;-78
2021/01/23 06:03:10;;;;;;;415.13;138.88;;;12.10;99.90;;;;;;5022353;28;20458;-78
2021/01/23 06:05:37;;;;;;;415.10;142.75;;;12.10;99.90;;;;;;5036759;28;20433;-79
2021/01/23 06:08:05;;;;;;;409.67;124.38;;;12.10;99.90;;;;;;5021473;28;20429;-78
2021/01/23 06:10:44;;;;;;;;;;;12.10;99.90;;;;;;5047532;28;20440;-78
2021/01/23 06:13:36;;;;;;;413.90;139.87;;;12.10;99.90;;;;;;5020261;28;25106;-78
2021/01/23 06:16:28;;;;;;;402.50;118.95;;;12.10;99.90;;;;;;5035373;28;20429;-77
2021/01/23 06:18:54;;;;;;;;;;;12.10;99.90;;;;;;5037689;28;20907;-78
2021/01/23 06:21:21;;;;;;;409.33;124.85;;;12.10;99.90;;;;;;5039354;28;20489;-78
2021/01/23 06:23:51;;;;;;;406.70;125.82;;;12.10;99.90;;;;;;5020159;28;20431;-78
2021/01/23 06:26:20;;;;;;;405.55;125.82;;;12.10;99.90;;;;;;5028547;28;20435;-78
2021/01/23 06:28:56;;;;;;;403.27;123.57;;;12.10;99.90;;;;;;5003665;28;20447;-78
2021/01/23 06:31:37;;;;;;;405.15;123.28;;;12.10;99.90;;;;;;5037372;28;20427;-78
2021/01/23 06:34:25;;;;;;;410.88;125.93;;;12.10;99.90;;;;;;5054363;28;20425;-78
2021/01/23 06:37:27;;;;;;;407.48;126.47;;;12.10;99.90;;;;;;5014895;28;20437;-77
2021/01/23 06:40:16;;;;;;;399.90;121.23;;;12.10;99.90;;;;;;5030430;28;20456;-77
2021/01/23 06:42:47;;;;;;;395.45;116.28;;;12.10;99.90;;;;;;5032493;28;20435;-78
2021/01/23 06:45:15;;;;;;;394.80;120.85;;;12.10;99.90;;;;;;5054546;28;20530;-78
2021/01/23 06:47:44;;;;;;;399.95;126.65;;;12.10;99.90;;;;;;5038536;28;20527;-77
2021/01/23 06:50:11;;;;;;;400.10;121.70;;;12.10;99.90;;;;;;5017042;28;20475;-78
2021/01/23 06:52:49;;;;;;;398.77;118.22;;;12.10;99.90;;;;;;5033487;28;20442;-78
2021/01/23 06:55:36;;;;;;;391.02;118.60;;;12.10;99.90;;;;;;5036749;28;20470;-79
2021/01/23 06:58:04;;;;;;;392.42;113.30;;;12.10;99.90;;;;;;5033694;28;20466;-78
2021/01/23 07:00:35;;;;;;;395.10;112.65;;;12.10;99.90;;;;;;5018882;28;20430;-78
2021/01/23 07:03:07;;;;;;;398.20;116.45;;;12.10;99.90;;;;;;5036913;28;20908;-78
2021/01/23 07:05:35;;;;;;;395.07;107.30;;;12.10;99.90;;;;;;5023892;28;20423;-78
2021/01/23 07:08:02;;;;;;;404.83;114.72;;;12.10;99.90;;;;;;5007633;28;20451;-78
2021/01/23 07:10:30;;;;;;;400.15;111.18;;;12.10;99.90;;;;;;5020920;28;20425;-78
2021/01/23 07:12:59;;;;;;;397.90;112.32;;;12.10;99.90;;;;;;5005788;28;20440;-78
2021/01/23 07:15:35;;;;;;;406.40;115.32;;;12.10;99.90;;;;;;5027623;28;20423;-80
2021/01/23 07:18:12;;;;;;;403.02;120.82;;;12.10;99.90;;;;;;5022886;28;20435;-80
2021/01/23 07:20:40;;;;;;;398.60;121.97;;;12.10;99.90;;;;;;5052229;28;25105;-79
2021/01/23 07:23:07;;;;;;;395.35;118.55;;;12.00;99.90;;;;;;5008272;28;20455;-77
2021/01/23 07:25:35;;;;;;;391.73;113.03;;;12.10;99.90;;;;;;5043782;28;20556;-79
2021/01/23 07:28:02;;;;;;;392.63;120.23;;;12.10;99.90;;;;;;5019508;28;20426;-79
2021/01/23 07:30:30;;;;;;;399.40;118.53;;;12.10;99.90;;;;;;5036124;28;20433;-79
2021/01/23 07:32:58;;;;;;;393.40;116.07;;;12.10;99.90;;;;;;5006764;28;20429;-79
2021/01/23 07:35:25;;;;;;;386.50;113.22;;;12.10;99.90;;;;;;5007752;28;20948;-79
2021/01/23 07:38:20;;;;;;;393.97;114.90;;;12.10;99.90;;;;;;5051202;28;21162;-79
2021/01/23 07:40:52;;;;;;;401.48;118.75;;;12.10;99.90;;;;;;5055003;28;20429;-80
2021/01/23 07:43:19;;;;;;;400.80;118.93;;;12.10;99.90;;;;;;5019656;28;20490;-79
2021/01/23 07:45:47;;;;;;;403.15;118.57;;;12.10;99.90;;;;;;5022988;28;20429;-79
2021/01/23 07:48:14;;;;;;;397.53;117.13;;;12.10;99.90;;;;;;5005127;28;20429;-79
2021/01/23 07:50:42;;;;;;;400.13;121.15;;;12.10;99.90;;;;;;5021224;28;20427;-80
2021/01/23 07:53:16;;;;;;;406.85;117.15;;;12.10;99.90;;;;;;5033602;28;20421;-79
2021/01/23 07:55:43;;;;;;;415.27;123.45;;;12.10;99.90;;;;;;5059689;28;20417;-79
2021/01/23 07:58:12;;;;;;;414.70;126.28;;;12.10;99.90;;;;;;5024756;28;20480;-80
2021/01/23 08:00:43;;;;;;;415.40;127.05;;;12.10;99.90;;;;;;5040054;28;20493;-79
2021/01/23 08:03:11;;;;;;;412.35;128.82;;;12.10;99.90;;;;;;5052300;28;20429;-79
2021/01/23 08:05:48;;;;;;;408.80;122.38;;;12.00;99.90;;;;;;5023802;28;20798;-79
2021/01/23 08:08:32;;;;;;;408.92;122.82;;;12.00;99.90;;;;;;5040886;28;20425;-79
2021/01/23 08:10:59;;;;;;;405.63;118.38;;;12.00;99.90;;;;;;5020840;28;20459;-80
2021/01/23 08:13:28;;;;;;;401.60;117.20;;;12.00;99.90;;;;;;5051538;28;20841;-79
2021/01/23 08:16:09;;;;;;;399.10;115.07;;;12.00;99.90;;;;;;5036352;28;20837;-80
2021/01/23 08:18:39;;;;;;;395.27;119.93;;;12.00;99.90;;;;;;5031846;28;20475;-79
2021/01/23 08:21:16;;;;;;;392.27;116.27;;;12.00;99.90;;;;;;5039112;28;20517;-79
2021/01/23 08:23:43;;;;;;;390.00;111.18;;;12.00;99.90;;;;;;5036708;28;20445;-80
2021/01/23 08:26:14;;;;;;;380.25;110.70;;;12.00;99.90;;;;;;5031223;28;20433;-80
2021/01/23 08:28:43;;;;;;;382.80;110.68;;;12.00;99.90;;;;;;5024973;28;20481;-80
2021/01/23 08:31:18;;;;;;;376.42;105.22;;;12.00;99.90;;;;;;5053414;28;20433;-80
2021/01/23 08:33:47;;;;;;;387.20;111.38;;;12.00;99.90;;;;;;5039613;28;20440;-80
2021/01/23 08:36:14;;;;;;;382.85;106.95;;;12.00;99.90;;;;;;5025568;28;20433;-80
2021/01/23 08:38:42;;;;;;;394.40;125.77;;;12.00;99.90;;;;;;5017875;28;20465;-81
2021/01/23 08:41:10;;;;;;;408.20;118.00;;;12.00;99.90;;;;;;5008171;28;20446;-80
2021/01/23 08:43:37;;;;;;;398.50;117.22;;;12.00;99.90;;;;;;5020575;28;20437;-79
2021/01/23 08:46:08;;;;;;;395.43;111.37;;;12.00;99.90;;;;;;5021445;28;20493;-80
2021/01/23 08:48:35;;;;;;;394.40;114.00;;;12.00;99.90;;;;;;5023351;28;20425;-79
2021/01/23 08:51:02;;;;;;;393.48;116.03;;;12.00;99.90;;;;;;5007097;28;20428;-81
2021/01/23 08:53:30;;;;;;;382.27;110.80;;;12.00;99.90;;;;;;5020986;28;20455;-81
2021/01/23 08:55:56;;;;;;;383.35;110.72;;;12.00;99.90;;;;;;5010407;28;21112;-81
2021/01/23 08:58:30;;;;;;;377.80;106.63;;;12.00;99.90;;;;;;5028112;28;20915;-80
2021/01/23 09:00:57;;;;;;;376.55;109.15;;;12.00;99.90;;;;;;5020131;28;20492;-80
2021/01/23 09:03:25;;;;;;;370.75;105.30;;;12.00;99.90;;;;;;5020060;28;20433;-80
2021/01/23 09:06:00;;;;;;;370.90;109.13;;;12.00;99.90;;;;;;5020931;28;20433;-79
2021/01/23 09:08:27;;;;;;;372.70;107.75;;;12.00;99.90;;;;;;5049991;28;20467;-80
2021/01/23 09:10:54;;;;;;;373.23;110.27;;;12.00;99.90;;;;;;5019966;28;20437;-80
2021/01/23 09:13:21;;;;;;;379.20;112.40;;;12.00;99.90;;;;;;5035920;28;20436;-80
2021/01/23 09:15:48;;;;;;;378.42;107.80;;;12.00;99.90;;;;;;5040997;28;20426;-81
2021/01/23 09:18:15;;;;;;;380.90;107.97;;;12.00;99.90;;;;;;5022152;28;20433;-81
2021/01/23 09:20:43;;;;;;;391.10;116.25;;;12.00;99.90;;;;;;5020601;28;20429;-81
2021/01/23 09:23:10;;;;;;;389.13;117.13;;;12.00;99.90;;;;;;5040254;28;20500;-81
2021/01/23 09:25:36;;;;;;;379.75;110.82;;;12.00;99.90;;;;;;5002990;28;21420;-81
2021/01/23 09:28:03;;;;;;;386.42;111.47;;;12.00;99.90;;;;;;5038648;28;20433;-79
2021/01/23 09:30:30;;;;;;;384.83;113.10;;;12.00;99.90;;;;;;5021157;28;20441;-79
2021/01/23 09:32:58;;;;;;;385.45;108.63;;;12.00;99.90;;;;;;5017729;28;20437;-79
2021/01/23 09:35:25;;;;;;;388.02;116.90;;;12.00;99.90;;;;;;5016368;28;20435;-80
2021/01/23 09:37:53;;;;;;;382.27;111.53;;;12.00;99.90;;;;;;5019831;28;20953;-80
2021/01/23 09:40:20;;;;;;;389.63;117.25;;;12.00;99.90;;;;;;5048567;28;20454;-79
2021/01/23 09:42:47;;;;;;;380.97;110.50;;;12.00;99.90;;;;;;5019236;28;20448;-80
2021/01/23 09:45:21;;;;;;;390.48;112.70;;;12.00;99.90;;;;;;5016471;28;21141;-80
2021/01/23 09:47:47;;;;;;;384.85;109.88;;;12.00;99.90;;;;;;5020969;28;25102;-80
2021/01/23 09:50:18;;;;;;;406.30;123.07;;;12.00;99.90;;;;;;5037390;28;20479;-80
2021/01/23 09:52:45;;;;;;;397.30;115.33;;;12.00;99.90;;;;;;5056623;28;20444;-80
2021/01/23 09:55:14;;;;;;;405.00;120.75;;;12.00;99.90;;;;;;4999984;28;20436;-80
2021/01/23 09:57:41;;;;;;;402.00;124.80;;;12.00;99.90;;;;;;5015613;28;20459;-80
2021/01/23 10:00:09;;;;;;;406.03;124.30;;;12.00;99.90;;;;;;5020096;28;20519;-80
2021/01/23 10:02:36;;;;;;;403.35;122.80;;;12.00;99.90;;;;;;5031456;28;20425;-80
2021/01/23 10:05:03;;;;;;;405.90;131.82;;;12.00;99.90;;;;;;4993584;28;20512;-80
2021/01/23 10:07:30;;;;;;;404.80;130.23;;;12.00;99.90;;;;;;5030113;28;20868;-80
2021/01/23 10:09:57;;;;;;;402.80;126.38;;;12.00;99.90;;;;;;5010947;28;20741;-80
2021/01/23 10:12:26;;;;;;;411.42;130.43;;;12.00;99.90;;;;;;5049048;28;20421;-80
2021/01/23 10:14:53;;;;;;;407.15;126.32;;;12.00;99.90;;;;;;5018866;28;20460;-80
2021/01/23 10:17:20;;;;;;;406.00;127.85;;;12.00;99.90;;;;;;4997949;28;20433;-80
2021/01/23 10:19:47;;;;;;;404.30;124.82;;;12.00;99.90;;;;;;5033203;28;20440;-80
2021/01/23 10:22:14;;;;;;;393.13;121.60;;;12.00;99.90;;;;;;5031244;28;20433;-80
2021/01/23 10:24:40;;;;;;;;;;;12.00;99.90;;;;;;5012751;28;20426;-80
2021/01/23 10:27:06;;;;;;;;;;;12.00;99.90;;;;;;5030186;28;20414;-80
2021/01/23 10:29:34;;;;;;;;;;;12.00;99.90;;;;;;5025216;28;20455;-80
2021/01/23 10:32:01;;;;;;;401.80;133.35;;;12.00;99.90;;;;;;5003785;28;21071;-78
2021/01/23 10:34:29;;;;;;;402.00;130.60;;;12.00;99.90;;;;;;5011570;28;20433;-78
2021/01/23 10:36:55;;;;;;;;;;;12.00;99.90;;;;;;5012193;28;20967;-79
2021/01/23 10:39:23;;;;;;;384.17;122.03;;;12.00;99.90;;;;;;5012287;28;20696;-79
2021/01/23 10:41:50;;;;;;;388.20;124.70;;;12.00;99.90;;;;;;5006444;28;20482;-79
2021/01/23 10:44:17;;;;;;;;;;;12.00;99.90;;;;;;4993015;28;20450;-79
2021/01/23 10:46:45;;;;;;;395.45;130.45;;;12.00;99.90;;;;;;5024204;28;20420;-79
2021/01/23 10:49:12;;;;;;;402.30;134.50;;;12.00;99.90;;;;;;5012274;28;20443;-79
2021/01/23 10:51:39;;;;;;;;;;;12.00;99.90;;;;;;5006868;28;20421;-78
2021/01/23 10:54:05;;;;;;;;;;;12.00;99.90;;;;;;5006616;28;25096;-79
2021/01/23 10:56:32;;;;;;;;;;;12.00;99.90;;;;;;5026626;28;20430;-79
2021/01/23 10:59:01;;;;;;;398.00;128.80;;;12.10;99.90;;;;;;5028243;28;25061;-79
2021/01/23 11:01:28;;;;;;;;;;;12.00;99.90;;;;;;5042693;28;25185;-79
2021/01/23 11:03:56;;;;;;;398.35;135.35;;;12.00;99.90;;;;;;5029504;28;20435;-79
2021/01/23 11:06:23;;;;;;;394.50;129.40;;;12.00;99.90;;;;;;5016166;28;20486;-78
2021/01/23 11:08:50;;;;;;;389.08;121.50;;;12.00;99.90;;;;;;5016296;28;20432;-80
2021/01/23 11:11:17;;;;;;;390.48;122.72;;;12.10;99.90;;;;;;5007819;28;20464;-80
2021/01/23 11:13:44;;;;;;;394.63;120.47;;;12.00;99.90;;;;;;4999933;28;21227;-80
2021/01/23 11:16:11;;;;;;;386.50;116.60;;;12.10;99.90;;;;;;5025939;28;20429;-80
2021/01/23 11:18:38;;;;;;;388.25;118.00;;;12.10;99.90;;;;;;5039769;28;20443;-80
2021/01/23 11:21:06;;;;;;;394.17;123.55;;;12.00;99.90;;;;;;5018630;28;20437;-80
2021/01/23 11:23:33;;;;;;;387.53;113.43;;;12.00;99.90;;;;;;5001489;28;20496;-80
2021/01/23 11:26:00;;;;;;;394.38;123.68;;;12.10;99.90;;;;;;5033814;28;20437;-81
2021/01/23 11:28:28;;;;;;;396.10;122.95;;;12.00;99.90;;;;;;5027396;28;21018;-80
2021/01/23 11:30:55;;;;;;;395.35;119.55;;;12.10;99.90;;;;;;5030492;28;20432;-80
2021/01/23 11:33:21;;;;;;;396.58;122.38;;;12.00;99.90;;;;;;5016003;28;20432;-80
2021/01/23 11:35:48;;;;;;;392.85;116.88;;;12.00;99.90;;;;;;5034730;28;20432;-81
2021/01/23 11:38:16;;;;;;;396.42;119.28;;;12.00;99.90;;;;;;5032184;28;20424;-80
2021/01/23 11:40:43;;;;;;;394.15;117.80;;;12.00;99.90;;;;;;5017222;28;20437;-80
2021/01/23 11:43:11;;;;;;;389.88;115.18;;;12.00;99.90;;;;;;5018521;28;20433;-80
2021/01/23 11:45:38;;;;;;;386.45;129.10;;;12.10;99.90;;;;;;5013540;28;20435;-80
2021/01/23 11:48:06;;;;;;;375.13;108.47;;;12.00;99.90;;;;;;5016322;28;20482;-80
2021/01/23 11:50:33;;;;;;;387.15;116.30;;;12.10;99.90;;;;;;5034391;28;20441;-80
2021/01/23 11:53:01;;;;;;;400.38;132.15;;;12.00;99.90;;;;;;5030550;28;20424;-80
2021/01/23 11:55:28;;;;;;;394.33;118.65;;;12.00;99.90;;;;;;5048820;28;20529;-80
2021/01/23 11:57:55;;;;;;;397.23;127.03;;;12.00;99.90;;;;;;5018156;28;20425;-80
2021/01/23 12:00:23;;;;;;;394.10;122.25;;;12.00;99.90;;;;;;5014875;28;20445;-80
2021/01/23 12:02:50;;;;;;;386.08;112.68;;;12.10;99.90;;;;;;5016170;28;20780;-80
2021/01/23 12:05:19;;;;;;;392.58;120.43;;;12.00;99.90;;;;;;5014518;28;20437;-80
2021/01/23 12:07:46;;;;;;;396.50;119.55;;;12.00;99.90;;;;;;5030516;28;20435;-80
2021/01/23 12:10:14;;;;;;;393.47;117.53;;;12.00;99.90;;;;;;5017479;28;20488;-79
2021/01/23 12:12:43;;;;;;;393.02;116.25;;;12.00;99.90;;;;;;5013189;28;20512;-84
2021/01/23 12:15:14;;;;;;;387.27;119.07;;;12.10;99.90;;;;;;5009167;28;20743;-80
2021/01/23 12:17:41;;;;;;;379.40;110.57;;;12.10;99.90;;;;;;5028933;28;20429;-80
2021/01/23 12:20:10;;;;;;;383.42;107.15;;;12.20;99.90;;;;;;5016543;28;20490;-80
2021/01/23 12:22:37;;;;;;;383.40;107.03;;;12.30;99.90;;;;;;5039110;28;20424;-80
2021/01/23 12:25:06;;;;;;;379.92;109.57;;;12.30;99.90;;;;;;5039743;28;20437;-80